createdAt,value
2022-10-04T00:01:48.968Z,14.63
2022-10-04T00:04:21.497Z,17.75
2022-10-04T00:06:57.760Z,17.98
2022-10-04T00:09:31.938Z,17.08
2022-10-04T00:11:59.981Z,20.25
2022-10-04T00:14:32.669Z,13.70
2022-10-04T00:17:07.416Z,13.13
2022-10-04T00:19:47.014Z,17.02
2022-10-04T00:22:30.117Z,14.27
2022-10-04T00:25:09.896Z,11.80
2022-10-04T00:27:38.500Z,12.63
2022-10-04T00:30:05.118Z,14.38
2022-10-04T00:32:41.131Z,17.55
2022-10-04T00:35:26.172Z,15.73
2022-10-04T00:38:21.866Z,14.88
2022-10-04T00:41:00.179Z,11.25
2022-10-04T00:43:39.538Z,13.63
2022-10-04T00:46:11.859Z,12.25
2022-10-04T00:48:46.305Z,15.02
2022-10-04T00:51:38.203Z,11.27
2022-10-04T00:54:17.554Z,14.00
2022-10-04T00:56:52.432Z,17.10
2022-10-04T00:59:28.201Z,13.40
2022-10-04T01:02:12.247Z,12.80
2022-10-04T01:04:56.991Z,13.57
2022-10-04T01:07:33.155Z,15.30
2022-10-04T01:10:26.782Z,9.80
2022-10-04T01:13:41.120Z,15.40
2022-10-04T01:16:16.715Z,11.20
2022-10-04T01:18:43.748Z,12.43
2022-10-04T01:21:19.374Z,9.60
2022-10-04T01:23:47.158Z,12.88
2022-10-04T01:26:35.048Z,14.50
2022-10-04T01:29:28.272Z,14.02
2022-10-04T01:31:58.463Z,14.30
2022-10-04T01:34:27.990Z,12.75
2022-10-04T01:37:00.165Z,13.35
2022-10-04T01:39:28.566Z,13.32
2022-10-04T01:42:27.365Z,11.32
2022-10-04T01:45:15.603Z,12.85
2022-10-04T01:47:48.547Z,15.52
2022-10-04T01:50:24.051Z,15.43
2022-10-04T01:52:55.971Z,16.15
2022-10-04T01:55:38.307Z,15.50
2022-10-04T01:58:17.308Z,13.32
2022-10-04T02:00:54.405Z,13.40
2022-10-04T02:03:28.339Z,15.95
2022-10-04T02:06:00.465Z,13.73
2022-10-04T02:08:30.990Z,12.40
2022-10-04T02:11:00.610Z,15.95
2022-10-04T02:13:34.124Z,15.93
2022-10-04T02:16:02.859Z,14.60
2022-10-04T02:18:31.674Z,13.27
2022-10-04T02:20:58.999Z,10.70
2022-10-04T02:23:26.738Z,13.32
2022-10-04T02:25:53.505Z,18.60
2022-10-04T02:28:20.199Z,15.00
2022-10-04T02:31:10.541Z,15.63
2022-10-04T02:33:46.475Z,13.75
2022-10-04T02:36:13.896Z,12.13
2022-10-04T02:39:00.372Z,11.73
2022-10-04T02:41:58.876Z,14.45
2022-10-04T02:44:35.452Z,12.85
2022-10-04T02:47:24.849Z,11.13
2022-10-04T02:49:55.339Z,16.02
2022-10-04T02:52:37.839Z,12.25
2022-10-04T02:55:27.864Z,11.48
2022-10-04T02:57:55.557Z,14.82
2022-10-04T03:00:31.114Z,14.18
2022-10-04T03:03:32.779Z,13.02
2022-10-04T03:06:09.529Z,11.45
2022-10-04T03:08:55.303Z,11.88
2022-10-04T03:11:27.329Z,12.48
2022-10-04T03:13:56.997Z,9.35
2022-10-04T03:16:25.006Z,12.95
2022-10-04T03:18:56.560Z,12.30
2022-10-04T03:21:24.572Z,15.30
2022-10-04T03:23:53.045Z,12.07
2022-10-04T03:26:42.301Z,17.50
2022-10-04T03:29:11.195Z,15.07
2022-10-04T03:31:42.448Z,19.95
2022-10-04T03:34:36.737Z,15.90
2022-10-04T03:37:08.119Z,15.80
2022-10-04T03:39:42.982Z,21.30
2022-10-04T03:42:17.858Z,17.90
2022-10-04T03:44:46.407Z,21.08
2022-10-04T03:47:19.397Z,17.95
2022-10-04T03:49:50.878Z,13.30
2022-10-04T03:52:22.760Z,17.40
2022-10-04T03:54:52.337Z,20.95
2022-10-04T03:57:19.373Z,14.40
2022-10-04T03:59:46.230Z,19.92
2022-10-04T04:02:45.960Z,21.23
2022-10-04T04:05:24.356Z,20.83
2022-10-04T04:08:14.665Z,18.10
2022-10-04T04:10:52.507Z,20.33
2022-10-04T04:13:24.388Z,21.67
2022-10-04T04:15:54.165Z,21.65
2022-10-04T04:18:23.827Z,24.13
2022-10-04T04:20:53.770Z,20.63
2022-10-04T04:23:25.990Z,18.83
2022-10-04T04:26:00.375Z,22.70
2022-10-04T04:28:40.177Z,20.95
2022-10-04T04:31:14.607Z,21.83
2022-10-04T04:34:01.166Z,23.83
2022-10-04T04:36:30.580Z,22.00
2022-10-04T04:39:34.329Z,21.25
2022-10-04T04:42:05.977Z,25.05
2022-10-04T04:44:33.355Z,18.50
2022-10-04T04:47:00.599Z,23.13
2022-10-04T04:49:31.202Z,21.88
2022-10-04T04:51:58.080Z,22.48
2022-10-04T04:54:27.959Z,23.70
2022-10-04T04:56:57.018Z,23.75
2022-10-04T04:59:27.170Z,23.27
2022-10-04T05:01:53.863Z,24.42
2022-10-04T05:04:22.998Z,25.67
2022-10-04T05:07:01.492Z,21.50
2022-10-04T05:09:35.597Z,24.65
2022-10-04T05:12:08.497Z,24.65
2022-10-04T05:14:39.453Z,25.23
2022-10-04T05:17:06.763Z,26.40
2022-10-04T05:19:37.541Z,22.58
2022-10-04T05:22:11.453Z,21.73
2022-10-04T05:24:51.473Z,21.58
2022-10-04T05:27:32.471Z,21.23
2022-10-04T05:29:59.167Z,30.55
2022-10-04T05:32:50.709Z,30.13
2022-10-04T05:35:19.555Z,28.60
2022-10-04T05:38:16.507Z,29.92
2022-10-04T05:41:19.993Z,33.83
2022-10-04T05:43:50.403Z,32.40
2022-10-04T05:46:51.026Z,40.45
2022-10-04T05:49:19.764Z,33.58
2022-10-04T05:51:53.848Z,30.33
2022-10-04T05:54:26.319Z,31.65
2022-10-04T05:57:34.506Z,27.60
2022-10-04T06:00:15.388Z,25.48
2022-10-04T06:02:59.429Z,23.20
2022-10-04T06:05:36.735Z,24.58
2022-10-04T06:08:14.473Z,27.35
2022-10-04T06:11:26.967Z,27.08
2022-10-04T06:14:03.803Z,25.48
2022-10-04T06:16:39.759Z,27.10
2022-10-04T06:19:39.531Z,28.15
2022-10-04T06:22:16.606Z,29.88
2022-10-04T06:24:48.739Z,33.33
2022-10-04T06:27:29.647Z,28.60
2022-10-04T06:30:02.663Z,28.77
2022-10-04T06:32:47.510Z,25.08
2022-10-04T06:35:42.673Z,27.15
2022-10-04T06:38:33.256Z,26.85
2022-10-04T06:41:38.215Z,26.65
2022-10-04T06:44:30.843Z,25.98
2022-10-04T06:47:20.807Z,29.38
2022-10-04T06:50:33.849Z,32.75
2022-10-04T06:53:46.857Z,30.88
2022-10-04T06:56:33.438Z,29.92
2022-10-04T06:59:28.205Z,33.03
2022-10-04T07:02:00.227Z,31.88
2022-10-04T07:05:07.627Z,33.53
2022-10-04T07:07:41.934Z,31.85
2022-10-04T07:10:27.592Z,34.45
2022-10-04T07:13:14.568Z,40.88
2022-10-04T07:16:03.905Z,28.80
2022-10-04T07:18:57.850Z,30.25
2022-10-04T07:21:33.381Z,28.30
2022-10-04T07:24:03.910Z,36.78
2022-10-04T07:26:41.839Z,29.08
2022-10-04T07:29:26.229Z,28.42
2022-10-04T07:32:06.416Z,33.50
2022-10-04T07:34:49.885Z,27.00
2022-10-04T07:37:19.388Z,28.73
2022-10-04T07:40:18.448Z,33.83
2022-10-04T07:42:48.755Z,24.38
2022-10-04T07:45:34.065Z,25.77
2022-10-04T07:48:15.260Z,28.98
2022-10-04T07:50:57.114Z,30.00
2022-10-04T07:53:51.324Z,27.08
2022-10-04T07:56:26.778Z,27.25
2022-10-04T07:59:26.717Z,27.42
2022-10-04T08:02:25.633Z,23.02
2022-10-04T08:05:09.697Z,23.50
2022-10-04T08:07:54.899Z,21.92
2022-10-04T08:10:27.819Z,22.48
2022-10-04T08:13:03.307Z,21.30
2022-10-04T08:15:44.124Z,16.80
2022-10-04T08:18:17.126Z,23.98
2022-10-04T08:20:43.700Z,14.85
2022-10-04T08:23:41.685Z,17.80
2022-10-04T08:26:26.347Z,15.68
2022-10-04T08:29:37.930Z,15.48
2022-10-04T08:32:23.120Z,12.50
2022-10-04T08:35:11.604Z,11.25
2022-10-04T08:37:56.747Z,8.82
2022-10-04T08:40:43.323Z,9.35
2022-10-04T08:43:31.488Z,10.45
2022-10-04T08:46:25.621Z,7.95
2022-10-04T08:49:07.549Z,7.50
2022-10-04T08:51:51.127Z,9.88
2022-10-04T08:54:57.203Z,8.85
2022-10-04T08:57:48.834Z,7.80
2022-10-04T09:00:36.997Z,4.93
2022-10-04T09:03:35.447Z,6.07
2022-10-04T09:06:30.003Z,6.88
2022-10-04T09:09:17.793Z,3.97
2022-10-04T09:11:50.999Z,4.35
2022-10-04T09:14:42.874Z,6.68
2022-10-04T09:17:34.257Z,7.35
2022-10-04T09:20:26.280Z,4.95
2022-10-04T09:23:07.805Z,6.53
2022-10-04T09:25:44.636Z,5.80
2022-10-04T09:28:18.081Z,5.72
2022-10-04T09:31:28.690Z,4.85
2022-10-04T09:34:22.097Z,7.00
2022-10-04T09:37:09.312Z,5.47
2022-10-04T09:40:01.009Z,8.77
2022-10-04T09:42:58.156Z,5.45
2022-10-04T09:45:30.739Z,8.40
2022-10-04T09:48:25.211Z,14.75
2022-10-04T09:51:24.666Z,8.43
2022-10-04T09:54:10.243Z,7.95
2022-10-04T09:57:15.068Z,12.23
2022-10-04T09:59:44.489Z,6.88
2022-10-04T10:02:40.388Z,9.43
2022-10-04T10:05:26.976Z,10.20
2022-10-04T10:08:13.501Z,9.48
2022-10-04T10:11:17.928Z,7.93
2022-10-04T10:14:03.473Z,7.72
2022-10-04T10:17:07.881Z,6.30
2022-10-04T10:19:49.713Z,5.53
2022-10-04T10:22:34.929Z,5.82
2022-10-04T10:25:26.698Z,5.25
2022-10-04T10:28:15.742Z,5.13
2022-10-04T10:31:20.169Z,6.90
2022-10-04T10:34:05.431Z,6.90
2022-10-04T10:37:04.466Z,4.78
2022-10-04T10:39:53.042Z,6.00
2022-10-04T10:42:48.677Z,7.32
2022-10-04T10:45:47.536Z,4.50
2022-10-04T10:49:00.942Z,6.18
2022-10-04T10:52:11.933Z,5.45
2022-10-04T10:54:57.596Z,7.57
2022-10-04T10:57:49.424Z,4.18
2022-10-04T11:00:23.677Z,5.15
2022-10-04T11:03:07.343Z,5.85
2022-10-04T11:05:58.204Z,5.38
2022-10-04T11:09:08.476Z,6.93
2022-10-04T11:12:24.574Z,6.03
2022-10-04T11:15:02.569Z,6.50
2022-10-04T11:17:47.740Z,6.75
2022-10-04T11:21:05.983Z,4.78
2022-10-04T11:24:34.892Z,5.47
2022-10-04T11:27:13.829Z,6.00
2022-10-04T11:29:55.317Z,8.32
2022-10-04T11:32:55.365Z,6.95
2022-10-04T11:35:39.195Z,4.72
2022-10-04T11:38:47.966Z,5.20
2022-10-04T11:41:18.952Z,4.95
2022-10-04T11:44:21.997Z,7.93
2022-10-04T11:47:14.783Z,5.70
2022-10-04T11:50:07.795Z,5.40
2022-10-04T11:52:37.463Z,7.65
2022-10-04T11:55:31.220Z,6.68
2022-10-04T11:58:12.037Z,5.68
2022-10-04T12:01:03.650Z,6.57
2022-10-04T12:03:44.343Z,4.40
2022-10-04T12:06:39.006Z,7.53
2022-10-04T12:09:15.253Z,6.20
2022-10-04T12:12:36.717Z,6.28
2022-10-04T12:15:28.189Z,5.35
2022-10-04T12:18:26.595Z,5.63
2022-10-04T12:21:15.305Z,5.35
2022-10-04T12:24:09.121Z,5.35
2022-10-04T12:26:55.732Z,5.55
2022-10-04T12:30:00.759Z,3.90
2022-10-04T12:32:32.678Z,4.00
2022-10-04T12:35:14.604Z,4.00
2022-10-04T12:38:26.883Z,3.65
2022-10-04T12:40:56.220Z,4.65
2022-10-04T12:43:50.138Z,5.03
2022-10-04T12:46:25.686Z,5.03
2022-10-04T12:49:16.783Z,4.57
2022-10-04T12:51:55.313Z,6.20
2022-10-04T12:54:34.002Z,4.80
2022-10-04T12:57:28.758Z,4.65
2022-10-04T13:00:12.821Z,5.05
2022-10-04T13:03:11.166Z,4.35
2022-10-04T13:05:55.177Z,10.52
2022-10-04T13:08:31.889Z,5.03
2022-10-04T13:11:52.318Z,3.72
2022-10-04T13:17:35.955Z,3.67
2022-10-04T13:20:37.545Z,4.57
2022-10-04T13:23:27.530Z,4.07
2022-10-04T13:26:15.320Z,4.38
2022-10-04T13:29:04.324Z,5.63
2022-10-04T13:31:40.973Z,5.13
2022-10-04T13:34:47.852Z,7.10
2022-10-04T13:37:20.564Z,5.00
2022-10-04T13:40:13.344Z,4.32
2022-10-04T13:43:15.199Z,4.85
2022-10-04T13:46:07.576Z,6.82
2022-10-04T13:48:57.185Z,5.75
2022-10-04T13:51:45.090Z,3.90
2022-10-04T13:54:38.665Z,5.53
2022-10-04T13:57:43.103Z,5.13
2022-10-04T14:00:20.210Z,6.20
2022-10-04T14:02:55.836Z,5.28
2022-10-04T14:06:06.190Z,5.63
2022-10-04T14:09:14.225Z,3.30
2022-10-04T14:11:41.679Z,6.35
2022-10-04T14:14:39.575Z,5.93
2022-10-04T14:17:22.869Z,4.72
2022-10-04T14:20:11.158Z,5.80
2022-10-04T14:22:59.474Z,5.07
2022-10-04T14:25:47.605Z,4.40
2022-10-04T14:28:14.664Z,5.50
2022-10-04T14:30:53.850Z,5.20
2022-10-04T14:33:47.413Z,3.97
2022-10-04T14:36:30.907Z,5.47
2022-10-04T14:39:29.460Z,5.35
2022-10-04T14:42:22.431Z,5.60
2022-10-04T14:45:17.620Z,5.80
2022-10-04T14:48:06.416Z,2.90
2022-10-04T14:54:01.172Z,5.63
2022-10-04T14:56:27.762Z,3.42
2022-10-04T14:59:21.807Z,3.63
2022-10-04T15:02:00.664Z,5.18
2022-10-04T15:04:37.567Z,2.92
2022-10-04T15:07:38.216Z,5.57
2022-10-04T15:10:27.762Z,3.63
2022-10-04T15:13:15.811Z,5.88
2022-10-04T15:16:14.510Z,3.85
2022-10-04T15:18:55.913Z,5.13
2022-10-04T15:21:32.958Z,6.13
2022-10-04T15:24:38.061Z,4.72
2022-10-04T15:27:20.031Z,6.03
2022-10-04T15:30:20.045Z,4.88
2022-10-04T15:33:11.666Z,5.20
2022-10-04T15:35:56.873Z,5.85
2022-10-04T15:38:27.647Z,4.22
2022-10-04T15:41:22.660Z,6.32
2022-10-04T15:44:16.791Z,4.88
2022-10-04T15:46:58.405Z,5.50
2022-10-04T15:49:42.305Z,6.68
2022-10-04T15:52:14.796Z,5.90
2022-10-04T15:54:52.237Z,5.30
2022-10-04T15:57:43.797Z,6.43
2022-10-04T16:00:21.037Z,10.38
2022-10-04T16:02:58.072Z,16.35
2022-10-04T16:05:43.672Z,13.52
2022-10-04T16:08:10.962Z,11.68
2022-10-04T16:11:12.601Z,10.43
2022-10-04T16:13:55.477Z,7.32
2022-10-04T16:16:31.500Z,9.27
2022-10-04T16:19:16.688Z,7.22
2022-10-04T16:21:54.345Z,11.20
2022-10-04T16:24:21.089Z,9.70
2022-10-04T16:26:48.795Z,12.63
2022-10-04T16:29:54.015Z,15.15
2022-10-04T16:32:57.948Z,12.55
2022-10-04T16:35:56.461Z,7.70
2022-10-04T16:38:29.391Z,6.28
2022-10-04T16:41:09.612Z,8.13
2022-10-04T16:43:47.646Z,8.48
2022-10-04T16:46:30.513Z,11.88
2022-10-04T16:49:01.175Z,8.90
2022-10-04T16:51:53.019Z,5.63
2022-10-04T16:55:03.718Z,6.60
2022-10-04T16:57:30.460Z,8.20
2022-10-04T17:00:06.478Z,5.68
2022-10-04T17:03:06.472Z,6.38
2022-10-04T17:05:43.826Z,6.13
2022-10-04T17:08:16.342Z,9.40
2022-10-04T17:10:49.355Z,12.65
2022-10-04T17:13:56.263Z,7.93
2022-10-04T17:16:33.105Z,12.13
2022-10-04T17:19:25.880Z,11.25
2022-10-04T17:21:55.264Z,9.25
2022-10-04T17:24:21.807Z,12.38
2022-10-04T17:27:26.238Z,7.05
2022-10-04T17:29:58.831Z,8.05
2022-10-04T17:32:40.839Z,9.68
2022-10-04T17:35:55.407Z,12.10
2022-10-04T17:38:47.485Z,9.35
2022-10-04T17:41:17.130Z,6.65
2022-10-04T17:43:56.279Z,7.40
2022-10-04T17:46:49.260Z,9.63
2022-10-04T17:50:14.760Z,8.07
2022-10-04T17:53:08.006Z,8.05
2022-10-04T17:55:53.060Z,12.18
2022-10-04T17:58:26.540Z,10.80
2022-10-04T18:01:06.572Z,9.30
2022-10-04T18:03:39.807Z,9.75
2022-10-04T18:06:16.770Z,8.57
2022-10-04T18:09:02.380Z,8.57
2022-10-04T18:11:41.738Z,9.82
2022-10-04T18:14:19.493Z,9.35
2022-10-04T18:17:13.137Z,11.55
2022-10-04T18:19:50.110Z,8.30
2022-10-04T18:22:18.917Z,13.80
2022-10-04T18:24:48.880Z,10.38
2022-10-04T18:27:25.157Z,8.68
2022-10-04T18:30:10.714Z,10.05
2022-10-04T18:32:38.641Z,9.88
2022-10-04T18:35:26.776Z,7.00
2022-10-04T18:38:18.145Z,10.20
2022-10-04T18:41:13.396Z,9.90
2022-10-04T18:43:58.285Z,12.48
2022-10-04T18:46:25.322Z,11.48
2022-10-04T18:48:59.771Z,12.07
2022-10-04T18:52:04.191Z,15.60
2022-10-04T18:55:00.564Z,11.40
2022-10-04T18:57:54.913Z,10.65
2022-10-04T19:00:41.867Z,12.65
2022-10-04T19:03:21.641Z,10.05
2022-10-04T19:05:54.421Z,14.10
2022-10-04T19:08:39.527Z,14.88
2022-10-04T19:11:16.481Z,10.15
2022-10-04T19:14:17.968Z,9.73
2022-10-04T19:16:57.001Z,10.63
2022-10-04T19:19:45.591Z,9.23
2022-10-04T19:22:31.222Z,9.25
2022-10-04T19:25:26.126Z,8.57
2022-10-04T19:28:00.902Z,7.10
2022-10-04T19:30:52.070Z,8.48
2022-10-04T19:33:35.835Z,7.55
2022-10-04T19:36:12.832Z,6.97
2022-10-04T19:38:51.652Z,8.40
2022-10-04T19:41:55.703Z,7.63
2022-10-04T19:44:52.024Z,9.45
2022-10-04T19:47:33.935Z,7.28
2022-10-04T19:50:21.975Z,10.48
2022-10-04T19:53:24.213Z,10.10
2022-10-04T19:56:03.043Z,6.93
2022-10-04T19:58:45.924Z,7.95
2022-10-04T20:01:24.808Z,9.30
2022-10-04T20:04:11.624Z,11.02
2022-10-04T20:06:54.290Z,14.00
2022-10-04T20:09:49.448Z,13.90
2022-10-04T20:12:35.541Z,13.32
2022-10-04T20:15:14.700Z,12.18
2022-10-04T20:17:42.039Z,14.05
2022-10-04T20:20:09.716Z,10.13
2022-10-04T20:22:52.405Z,16.58
2022-10-04T20:25:43.706Z,10.45
2022-10-04T20:28:30.313Z,14.10
2022-10-04T20:30:59.325Z,11.52
2022-10-04T20:33:35.095Z,12.82
2022-10-04T20:36:20.597Z,10.98
2022-10-04T20:38:50.918Z,13.60
2022-10-04T20:41:50.448Z,11.98
2022-10-04T20:44:47.537Z,11.75
2022-10-04T20:47:49.021Z,11.05
2022-10-04T20:50:21.187Z,11.93
2022-10-04T20:58:28.524Z,9.45
2022-10-04T21:00:58.212Z,11.68
2022-10-04T21:03:24.971Z,11.52
2022-10-04T21:06:08.155Z,13.55
2022-10-04T21:08:36.678Z,10.35
2022-10-04T21:11:21.042Z,11.25
2022-10-04T21:13:57.157Z,8.80
2022-10-04T21:16:45.770Z,12.55
2022-10-04T21:19:42.957Z,11.02
2022-10-04T21:22:30.928Z,11.70
2022-10-04T21:25:31.198Z,8.45
2022-10-04T21:28:24.246Z,10.75
2022-10-04T21:30:50.967Z,13.40
2022-10-04T21:33:17.616Z,9.93
2022-10-04T21:35:45.326Z,8.98
2022-10-04T21:38:12.314Z,12.50
2022-10-04T21:40:38.904Z,14.15
2022-10-04T21:43:05.550Z,9.05
2022-10-04T21:45:32.205Z,10.88
2022-10-04T21:47:58.879Z,7.40
2022-10-04T21:50:25.514Z,12.35
2022-10-04T21:52:52.088Z,8.57
2022-10-04T21:55:18.708Z,11.48
2022-10-04T21:57:45.734Z,8.77
2022-10-04T22:00:12.869Z,9.13
2022-10-04T22:02:39.566Z,14.20
2022-10-04T22:05:06.479Z,9.35
2022-10-04T22:07:33.152Z,10.30
2022-10-04T22:09:59.813Z,10.82
2022-10-04T22:12:26.782Z,10.77
2022-10-04T22:14:53.329Z,9.27
2022-10-04T22:17:19.903Z,9.05
2022-10-04T22:19:46.460Z,11.80
2022-10-04T22:22:16.973Z,8.82
2022-10-04T22:24:43.750Z,9.82
2022-10-04T22:27:15.118Z,9.15
2022-10-04T22:29:42.488Z,8.77
2022-10-04T22:32:20.722Z,9.95
2022-10-04T22:34:47.407Z,9.23
2022-10-04T22:37:14.147Z,9.18
2022-10-04T22:39:40.753Z,7.75
2022-10-04T22:42:12.195Z,9.75
2022-10-04T22:44:39.088Z,8.07
2022-10-04T22:47:11.637Z,7.60
2022-10-04T22:49:41.645Z,8.70
2022-10-04T22:52:18.266Z,9.43
2022-10-04T22:54:47.179Z,8.88
2022-10-04T22:57:15.796Z,10.75
2022-10-04T22:59:47.544Z,9.63
2022-10-04T23:02:24.086Z,7.88
2022-10-04T23:05:01.042Z,9.35
2022-10-04T23:07:27.943Z,7.97
2022-10-04T23:09:54.532Z,8.88
2022-10-04T23:12:21.468Z,7.97
2022-10-04T23:14:48.155Z,6.60
2022-10-04T23:17:24.716Z,10.70
2022-10-04T23:20:14.735Z,8.60
2022-10-04T23:22:47.383Z,6.95
2022-10-04T23:25:20.600Z,8.60
2022-10-04T23:27:48.298Z,8.45
2022-10-04T23:30:20.537Z,7.57
2022-10-04T23:32:49.927Z,11.00
2022-10-04T23:35:24.705Z,11.13
2022-10-04T23:37:52.918Z,7.07
2022-10-04T23:40:22.358Z,6.68
2022-10-04T23:42:51.302Z,9.13
2022-10-04T23:45:23.445Z,9.90
2022-10-04T23:47:53.136Z,7.97
2022-10-04T23:50:23.105Z,6.97
2022-10-04T23:52:51.750Z,8.25
2022-10-04T23:55:21.150Z,7.90
2022-10-04T23:57:48.197Z,7.78
